sensor_id;sensor_type;location;lat;lon;timestamp;temperature;humidity
7588;DHT22;3835;48.850;8.938;2023-02-22T00:00:25;5.60;99.90
7588;DHT22;3835;48.850;8.938;2023-02-22T00:03:01;5.60;99.90
7588;DHT22;3835;48.850;8.938;2023-02-22T00:05:28;5.60;99.90
7588;DHT22;3835;48.850;8.938;2023-02-22T00:07:56;5.60;99.90
7588;DHT22;3835;48.850;8.938;2023-02-22T00:10:26;5.80;99.90
7588;DHT22;3835;48.850;8.938;2023-02-22T00:12:54;5.80;99.90
7588;DHT22;3835;48.850;8.938;2023-02-22T00:15:23;5.70;99.90
7588;DHT22;3835;48.850;8.938;2023-02-22T00:17:52;5.70;99.90
7588;DHT22;3835;48.850;8.938;2023-02-22T00:20:20;5.80;99.90
7588;DHT22;3835;48.850;8.938;2023-02-22T00:22:48;5.70;99.90
7588;DHT22;3835;48.850;8.938;2023-02-22T00:25:17;5.70;99.90
7588;DHT22;3835;48.850;8.938;2023-02-22T00:27:46;5.60;99.90
7588;DHT22;3835;48.850;8.938;2023-02-22T00:30:15;5.50;99.90
7588;DHT22;3835;48.850;8.938;2023-02-22T00:32:43;5.50;99.90
7588;DHT22;3835;48.850;8.938;2023-02-22T00:35:11;5.60;99.90
7588;DHT22;3835;48.850;8.938;2023-02-22T00:37:37;5.70;99.90
7588;DHT22;3835;48.850;8.938;2023-02-22T00:40:07;5.70;99.90
7588;DHT22;3835;48.850;8.938;2023-02-22T00:42:34;5.60;99.90
7588;DHT22;3835;48.850;8.938;2023-02-22T00:45:02;5.60;99.90
7588;DHT22;3835;48.850;8.938;2023-02-22T00:47:29;5.60;99.90
7588;DHT22;3835;48.850;8.938;2023-02-22T00:49:56;5.60;99.90
7588;DHT22;3835;48.850;8.938;2023-02-22T00:52:23;5.50;99.90
7588;DHT22;3835;48.850;8.938;2023-02-22T00:54:49;5.50;99.90
7588;DHT22;3835;48.850;8.938;2023-02-22T00:57:16;5.40;99.90
7588;DHT22;3835;48.850;8.938;2023-02-22T00:59:44;5.40;99.90
7588;DHT22;3835;48.850;8.938;2023-02-22T01:02:12;5.40;99.90
7588;DHT22;3835;48.850;8.938;2023-02-22T01:04:39;5.30;99.90
7588;DHT22;3835;48.850;8.938;2023-02-22T01:07:06;5.30;99.90
7588;DHT22;3835;48.850;8.938;2023-02-22T01:09:33;5.40;99.90
7588;DHT22;3835;48.850;8.938;2023-02-22T01:12:00;5.50;99.90
7588;DHT22;3835;48.850;8.938;2023-02-22T01:14:27;5.70;99.90
7588;DHT22;3835;48.850;8.938;2023-02-22T01:16:55;5.80;99.90
7588;DHT22;3835;48.850;8.938;2023-02-22T01:19:23;5.80;99.90
7588;DHT22;3835;48.850;8.938;2023-02-22T01:21:50;5.80;99.90
7588;DHT22;3835;48.850;8.938;2023-02-22T01:24:17;5.90;99.90
7588;DHT22;3835;48.850;8.938;2023-02-22T01:26:49;6.00;99.90
7588;DHT22;3835;48.850;8.938;2023-02-22T01:29:17;6.00;99.90
7588;DHT22;3835;48.850;8.938;2023-02-22T01:31:50;5.90;99.90
7588;DHT22;3835;48.850;8.938;2023-02-22T01:34:19;5.80;99.90
7588;DHT22;3835;48.850;8.938;2023-02-22T01:36:48;5.70;99.90
7588;DHT22;3835;48.850;8.938;2023-02-22T01:39:15;5.70;99.90
7588;DHT22;3835;48.850;8.938;2023-02-22T01:41:43;5.80;99.90
7588;DHT22;3835;48.850;8.938;2023-02-22T01:44:25;5.80;99.90
7588;DHT22;3835;48.850;8.938;2023-02-22T01:46:52;5.90;99.90
7588;DHT22;3835;48.850;8.938;2023-02-22T01:49:20;5.80;99.90
7588;DHT22;3835;48.850;8.938;2023-02-22T01:51:50;5.60;99.90
7588;DHT22;3835;48.850;8.938;2023-02-22T01:54:20;5.60;99.90
7588;DHT22;3835;48.850;8.938;2023-02-22T01:56:53;5.70;99.90
7588;DHT22;3835;48.850;8.938;2023-02-22T01:59:21;5.80;99.90
7588;DHT22;3835;48.850;8.938;2023-02-22T02:01:49;5.80;99.90
7588;DHT22;3835;48.850;8.938;2023-02-22T02:04:19;5.80;99.90
7588;DHT22;3835;48.850;8.938;2023-02-22T02:06:51;5.90;99.90
7588;DHT22;3835;48.850;8.938;2023-02-22T02:09:22;5.90;99.90
7588;DHT22;3835;48.850;8.938;2023-02-22T02:11:52;5.90;99.90
7588;DHT22;3835;48.850;8.938;2023-02-22T02:14:19;5.90;99.90
7588;DHT22;3835;48.850;8.938;2023-02-22T02:16:48;5.80;99.90
7588;DHT22;3835;48.850;8.938;2023-02-22T02:19:23;5.90;99.90
7588;DHT22;3835;48.850;8.938;2023-02-22T02:22:18;5.90;99.90
7588;DHT22;3835;48.850;8.938;2023-02-22T02:25:27;5.90;99.90
7588;DHT22;3835;48.850;8.938;2023-02-22T02:28:16;5.90;99.90
7588;DHT22;3835;48.850;8.938;2023-02-22T02:31:17;5.90;99.90
7588;DHT22;3835;48.850;8.938;2023-02-22T02:33:51;5.80;99.90
7588;DHT22;3835;48.850;8.938;2023-02-22T02:36:26;5.80;99.90
7588;DHT22;3835;48.850;8.938;2023-02-22T02:38:59;5.80;99.90
7588;DHT22;3835;48.850;8.938;2023-02-22T02:41:32;5.80;99.90
7588;DHT22;3835;48.850;8.938;2023-02-22T02:44:03;5.80;99.90
7588;DHT22;3835;48.850;8.938;2023-02-22T02:46:33;5.80;99.90
7588;DHT22;3835;48.850;8.938;2023-02-22T02:49:06;5.90;99.90
7588;DHT22;3835;48.850;8.938;2023-02-22T02:51:37;5.80;99.90
7588;DHT22;3835;48.850;8.938;2023-02-22T02:54:05;5.90;99.90
7588;DHT22;3835;48.850;8.938;2023-02-22T02:56:34;5.80;99.90
7588;DHT22;3835;48.850;8.938;2023-02-22T02:59:00;5.80;99.90
7588;DHT22;3835;48.850;8.938;2023-02-22T03:01:44;5.80;99.90
7588;DHT22;3835;48.850;8.938;2023-02-22T03:04:31;5.90;99.90
7588;DHT22;3835;48.850;8.938;2023-02-22T03:07:12;5.90;99.90
7588;DHT22;3835;48.850;8.938;2023-02-22T03:09:52;5.90;99.90
7588;DHT22;3835;48.850;8.938;2023-02-22T03:12:34;5.90;99.90
7588;DHT22;3835;48.850;8.938;2023-02-22T03:15:12;5.90;99.90
7588;DHT22;3835;48.850;8.938;2023-02-22T03:17:45;5.90;99.90
7588;DHT22;3835;48.850;8.938;2023-02-22T03:20:19;5.90;99.90
7588;DHT22;3835;48.850;8.938;2023-02-22T03:22:52;5.80;99.90
7588;DHT22;3835;48.850;8.938;2023-02-22T03:25:25;5.80;99.90
7588;DHT22;3835;48.850;8.938;2023-02-22T03:27:56;5.80;99.90
7588;DHT22;3835;48.850;8.938;2023-02-22T03:30:32;5.80;99.90
7588;DHT22;3835;48.850;8.938;2023-02-22T03:33:04;5.80;99.90
7588;DHT22;3835;48.850;8.938;2023-02-22T03:35:36;5.80;99.90
7588;DHT22;3835;48.850;8.938;2023-02-22T03:38:08;5.80;99.90
7588;DHT22;3835;48.850;8.938;2023-02-22T03:40:40;5.80;99.90
7588;DHT22;3835;48.850;8.938;2023-02-22T03:43:12;5.70;99.90
7588;DHT22;3835;48.850;8.938;2023-02-22T03:45:42;5.70;99.90
7588;DHT22;3835;48.850;8.938;2023-02-22T03:48:15;5.70;99.90
7588;DHT22;3835;48.850;8.938;2023-02-22T03:50:47;5.70;99.90
7588;DHT22;3835;48.850;8.938;2023-02-22T03:53:16;5.70;99.90
7588;DHT22;3835;48.850;8.938;2023-02-22T03:55:44;5.70;99.90
7588;DHT22;3835;48.850;8.938;2023-02-22T03:58:13;5.70;99.90
7588;DHT22;3835;48.850;8.938;2023-02-22T04:00:40;5.70;99.90
7588;DHT22;3835;48.850;8.938;2023-02-22T04:03:09;5.70;99.90
7588;DHT22;3835;48.850;8.938;2023-02-22T04:05:36;5.70;99.90
7588;DHT22;3835;48.850;8.938;2023-02-22T04:08:04;5.60;99.90
7588;DHT22;3835;48.850;8.938;2023-02-22T04:10:31;5.40;99.90
7588;DHT22;3835;48.850;8.938;2023-02-22T04:12:59;5.50;99.90
7588;DHT22;3835;48.850;8.938;2023-02-22T04:15:26;5.50;99.90
7588;DHT22;3835;48.850;8.938;2023-02-22T04:17:52;5.50;99.90
7588;DHT22;3835;48.850;8.938;2023-02-22T04:20:20;5.50;99.90
7588;DHT22;3835;48.850;8.938;2023-02-22T04:22:50;5.50;99.90
7588;DHT22;3835;48.850;8.938;2023-02-22T04:25:18;5.50;99.90
7588;DHT22;3835;48.850;8.938;2023-02-22T04:27:45;5.50;99.90
7588;DHT22;3835;48.850;8.938;2023-02-22T04:30:14;5.40;99.90
7588;DHT22;3835;48.850;8.938;2023-02-22T04:32:41;5.20;99.90
7588;DHT22;3835;48.850;8.938;2023-02-22T04:35:08;5.10;99.90
7588;DHT22;3835;48.850;8.938;2023-02-22T04:37:35;5.00;99.90
7588;DHT22;3835;48.850;8.938;2023-02-22T04:40:03;4.90;99.90
7588;DHT22;3835;48.850;8.938;2023-02-22T04:42:33;4.90;99.90
7588;DHT22;3835;48.850;8.938;2023-02-22T04:45:00;5.00;99.90
7588;DHT22;3835;48.850;8.938;2023-02-22T04:47:27;5.10;99.90
7588;DHT22;3835;48.850;8.938;2023-02-22T04:49:54;5.20;99.90
7588;DHT22;3835;48.850;8.938;2023-02-22T04:52:21;5.10;99.90
7588;DHT22;3835;48.850;8.938;2023-02-22T04:54:48;5.10;99.90
7588;DHT22;3835;48.850;8.938;2023-02-22T04:57:15;5.10;99.90
7588;DHT22;3835;48.850;8.938;2023-02-22T04:59:43;5.00;99.90
7588;DHT22;3835;48.850;8.938;2023-02-22T05:02:10;5.00;99.90
7588;DHT22;3835;48.850;8.938;2023-02-22T05:04:37;5.00;99.90
7588;DHT22;3835;48.850;8.938;2023-02-22T05:07:04;5.00;99.90
7588;DHT22;3835;48.850;8.938;2023-02-22T05:09:30;4.90;99.90
7588;DHT22;3835;48.850;8.938;2023-02-22T05:11:57;4.80;99.90
7588;DHT22;3835;48.850;8.938;2023-02-22T05:14:24;4.80;99.90
7588;DHT22;3835;48.850;8.938;2023-02-22T05:16:54;4.70;99.90
7588;DHT22;3835;48.850;8.938;2023-02-22T05:19:22;4.70;99.90
7588;DHT22;3835;48.850;8.938;2023-02-22T05:21:49;4.60;99.90
7588;DHT22;3835;48.850;8.938;2023-02-22T05:24:16;4.70;99.90
7588;DHT22;3835;48.850;8.938;2023-02-22T05:26:43;4.60;99.90
7588;DHT22;3835;48.850;8.938;2023-02-22T05:29:10;4.60;99.90
7588;DHT22;3835;48.850;8.938;2023-02-22T05:31:37;4.50;99.90
7588;DHT22;3835;48.850;8.938;2023-02-22T05:34:07;4.50;99.90
7588;DHT22;3835;48.850;8.938;2023-02-22T05:36:34;4.50;99.90
7588;DHT22;3835;48.850;8.938;2023-02-22T05:39:01;4.40;99.90
7588;DHT22;3835;48.850;8.938;2023-02-22T05:41:28;4.40;99.90
7588;DHT22;3835;48.850;8.938;2023-02-22T05:43:54;4.30;99.90
7588;DHT22;3835;48.850;8.938;2023-02-22T05:46:21;4.30;99.90
7588;DHT22;3835;48.850;8.938;2023-02-22T05:48:48;4.40;99.90
7588;DHT22;3835;48.850;8.938;2023-02-22T05:51:16;4.40;99.90
7588;DHT22;3835;48.850;8.938;2023-02-22T05:53:44;4.50;99.90
7588;DHT22;3835;48.850;8.938;2023-02-22T05:56:10;4.50;99.90
7588;DHT22;3835;48.850;8.938;2023-02-22T05:58:37;4.40;99.90
7588;DHT22;3835;48.850;8.938;2023-02-22T06:01:04;4.40;99.90
7588;DHT22;3835;48.850;8.938;2023-02-22T06:03:31;4.40;99.90
7588;DHT22;3835;48.850;8.938;2023-02-22T06:05:58;4.40;99.90
7588;DHT22;3835;48.850;8.938;2023-02-22T06:08:26;4.40;99.90
7588;DHT22;3835;48.850;8.938;2023-02-22T06:10:52;4.40;99.90
7588;DHT22;3835;48.850;8.938;2023-02-22T06:13:19;4.40;99.90
7588;DHT22;3835;48.850;8.938;2023-02-22T06:15:46;4.30;99.90
7588;DHT22;3835;48.850;8.938;2023-02-22T06:18:13;4.30;99.90
7588;DHT22;3835;48.850;8.938;2023-02-22T06:20:40;4.40;99.90
7588;DHT22;3835;48.850;8.938;2023-02-22T06:23:06;4.50;99.90
7588;DHT22;3835;48.850;8.938;2023-02-22T06:25:34;4.50;99.90
7588;DHT22;3835;48.850;8.938;2023-02-22T06:28:01;4.50;99.90
7588;DHT22;3835;48.850;8.938;2023-02-22T06:30:29;4.50;99.90
7588;DHT22;3835;48.850;8.938;2023-02-22T06:32:56;4.50;99.90
7588;DHT22;3835;48.850;8.938;2023-02-22T06:35:23;4.50;99.90
7588;DHT22;3835;48.850;8.938;2023-02-22T06:37:50;4.40;99.90
7588;DHT22;3835;48.850;8.938;2023-02-22T06:40:17;4.40;99.90
7588;DHT22;3835;48.850;8.938;2023-02-22T06:42:46;4.40;99.90
7588;DHT22;3835;48.850;8.938;2023-02-22T06:45:15;4.40;99.90
7588;DHT22;3835;48.850;8.938;2023-02-22T06:47:42;4.50;99.90
7588;DHT22;3835;48.850;8.938;2023-02-22T06:50:18;4.60;99.90
7588;DHT22;3835;48.850;8.938;2023-02-22T06:52:45;4.70;99.90
7588;DHT22;3835;48.850;8.938;2023-02-22T06:55:16;4.70;99.90
7588;DHT22;3835;48.850;8.938;2023-02-22T06:57:45;4.70;99.90
7588;DHT22;3835;48.850;8.938;2023-02-22T07:00:14;4.70;99.90
7588;DHT22;3835;48.850;8.938;2023-02-22T07:02:41;4.60;99.90
7588;DHT22;3835;48.850;8.938;2023-02-22T07:05:09;4.80;99.90
7588;DHT22;3835;48.850;8.938;2023-02-22T07:07:37;4.80;99.90
7588;DHT22;3835;48.850;8.938;2023-02-22T07:10:05;5.00;99.90
7588;DHT22;3835;48.850;8.938;2023-02-22T07:12:32;5.10;99.90
7588;DHT22;3835;48.850;8.938;2023-02-22T07:15:01;5.20;99.90
7588;DHT22;3835;48.850;8.938;2023-02-22T07:17:28;5.30;99.90
7588;DHT22;3835;48.850;8.938;2023-02-22T07:19:55;5.40;99.90
7588;DHT22;3835;48.850;8.938;2023-02-22T07:22:21;5.50;99.90
7588;DHT22;3835;48.850;8.938;2023-02-22T07:24:48;5.60;99.90
7588;DHT22;3835;48.850;8.938;2023-02-22T07:27:15;5.60;99.90
7588;DHT22;3835;48.850;8.938;2023-02-22T07:29:43;5.60;99.90
7588;DHT22;3835;48.850;8.938;2023-02-22T07:32:12;5.70;99.90
7588;DHT22;3835;48.850;8.938;2023-02-22T07:34:40;5.80;99.90
7588;DHT22;3835;48.850;8.938;2023-02-22T07:37:07;6.00;99.90
7588;DHT22;3835;48.850;8.938;2023-02-22T07:39:34;6.00;99.90
7588;DHT22;3835;48.850;8.938;2023-02-22T07:42:02;6.10;99.90
7588;DHT22;3835;48.850;8.938;2023-02-22T07:44:29;6.30;99.90
7588;DHT22;3835;48.850;8.938;2023-02-22T07:46:56;6.40;99.90
7588;DHT22;3835;48.850;8.938;2023-02-22T07:49:24;6.50;99.90
7588;DHT22;3835;48.850;8.938;2023-02-22T07:51:51;6.70;99.90
7588;DHT22;3835;48.850;8.938;2023-02-22T07:54:18;6.80;99.90
7588;DHT22;3835;48.850;8.938;2023-02-22T07:56:45;6.90;99.90
7588;DHT22;3835;48.850;8.938;2023-02-22T07:59:12;7.10;99.90
7588;DHT22;3835;48.850;8.938;2023-02-22T08:01:39;7.20;99.90
7588;DHT22;3835;48.850;8.938;2023-02-22T08:04:06;7.40;99.90
7588;DHT22;3835;48.850;8.938;2023-02-22T08:06:34;7.50;99.90
7588;DHT22;3835;48.850;8.938;2023-02-22T08:09:01;7.60;99.90
7588;DHT22;3835;48.850;8.938;2023-02-22T08:11:28;7.70;99.90
7588;DHT22;3835;48.850;8.938;2023-02-22T08:13:55;7.90;99.90
7588;DHT22;3835;48.850;8.938;2023-02-22T08:16:21;8.10;99.90
7588;DHT22;3835;48.850;8.938;2023-02-22T08:18:48;8.40;99.90
7588;DHT22;3835;48.850;8.938;2023-02-22T08:21:15;8.60;99.90
7588;DHT22;3835;48.850;8.938;2023-02-22T08:23:43;8.70;99.90
7588;DHT22;3835;48.850;8.938;2023-02-22T08:26:11;9.00;99.90
7588;DHT22;3835;48.850;8.938;2023-02-22T08:28:42;9.20;99.90
7588;DHT22;3835;48.850;8.938;2023-02-22T08:31:09;9.30;99.90
7588;DHT22;3835;48.850;8.938;2023-02-22T08:33:36;9.30;99.90
7588;DHT22;3835;48.850;8.938;2023-02-22T08:36:03;9.30;99.90
7588;DHT22;3835;48.850;8.938;2023-02-22T08:38:31;9.20;99.90
7588;DHT22;3835;48.850;8.938;2023-02-22T08:40:59;9.00;99.90
7588;DHT22;3835;48.850;8.938;2023-02-22T08:43:26;9.10;99.90
7588;DHT22;3835;48.850;8.938;2023-02-22T08:45:53;9.20;99.90
7588;DHT22;3835;48.850;8.938;2023-02-22T08:48:21;9.40;99.90
7588;DHT22;3835;48.850;8.938;2023-02-22T08:50:49;9.40;99.90
7588;DHT22;3835;48.850;8.938;2023-02-22T08:53:16;9.60;99.90
7588;DHT22;3835;48.850;8.938;2023-02-22T08:55:43;9.70;99.90
7588;DHT22;3835;48.850;8.938;2023-02-22T08:58:11;10.00;99.90
7588;DHT22;3835;48.850;8.938;2023-02-22T09:00:39;10.30;99.90
7588;DHT22;3835;48.850;8.938;2023-02-22T09:03:08;10.20;99.90
7588;DHT22;3835;48.850;8.938;2023-02-22T09:05:37;10.10;99.90
7588;DHT22;3835;48.850;8.938;2023-02-22T09:08:04;10.20;99.90
7588;DHT22;3835;48.850;8.938;2023-02-22T09:10:32;10.20;99.90
7588;DHT22;3835;48.850;8.938;2023-02-22T09:13:00;10.40;99.90
7588;DHT22;3835;48.850;8.938;2023-02-22T09:15:30;10.50;99.90
7588;DHT22;3835;48.850;8.938;2023-02-22T09:17:57;10.50;99.90
7588;DHT22;3835;48.850;8.938;2023-02-22T09:20:24;10.70;99.90
7588;DHT22;3835;48.850;8.938;2023-02-22T09:22:51;10.90;99.90
7588;DHT22;3835;48.850;8.938;2023-02-22T09:25:21;10.90;99.90
7588;DHT22;3835;48.850;8.938;2023-02-22T09:27:49;11.00;99.90
7588;DHT22;3835;48.850;8.938;2023-02-22T09:30:20;11.10;99.90
7588;DHT22;3835;48.850;8.938;2023-02-22T09:32:50;11.10;99.90
7588;DHT22;3835;48.850;8.938;2023-02-22T09:35:17;11.10;99.90
7588;DHT22;3835;48.850;8.938;2023-02-22T09:37:43;11.30;99.90
7588;DHT22;3835;48.850;8.938;2023-02-22T09:40:15;11.30;99.90
7588;DHT22;3835;48.850;8.938;2023-02-22T09:42:55;11.50;99.90
7588;DHT22;3835;48.850;8.938;2023-02-22T09:45:29;11.60;99.90
7588;DHT22;3835;48.850;8.938;2023-02-22T09:48:04;11.80;99.90
7588;DHT22;3835;48.850;8.938;2023-02-22T09:50:34;12.20;99.90
7588;DHT22;3835;48.850;8.938;2023-02-22T09:53:04;12.10;99.90
7588;DHT22;3835;48.850;8.938;2023-02-22T09:55:35;12.00;99.90
7588;DHT22;3835;48.850;8.938;2023-02-22T10:00:51;12.40;99.90
7588;DHT22;3835;48.850;8.938;2023-02-22T10:03:28;12.50;99.90
7588;DHT22;3835;48.850;8.938;2023-02-22T10:06:00;12.60;99.90
7588;DHT22;3835;48.850;8.938;2023-02-22T10:08:31;12.80;99.90
7588;DHT22;3835;48.850;8.938;2023-02-22T10:11:10;13.10;99.90
7588;DHT22;3835;48.850;8.938;2023-02-22T10:13:50;13.10;99.90
7588;DHT22;3835;48.850;8.938;2023-02-22T10:16:26;13.00;99.90
7588;DHT22;3835;48.850;8.938;2023-02-22T10:19:15;13.00;99.90
7588;DHT22;3835;48.850;8.938;2023-02-22T10:21:59;13.00;99.90
7588;DHT22;3835;48.850;8.938;2023-02-22T10:24:37;12.90;99.90
7588;DHT22;3835;48.850;8.938;2023-02-22T10:27:14;12.80;99.90
7588;DHT22;3835;48.850;8.938;2023-02-22T10:29:45;12.80;99.90
7588;DHT22;3835;48.850;8.938;2023-02-22T10:32:16;12.90;99.90
7588;DHT22;3835;48.850;8.938;2023-02-22T10:34:48;12.70;99.90
7588;DHT22;3835;48.850;8.938;2023-02-22T10:37:22;12.80;99.90
7588;DHT22;3835;48.850;8.938;2023-02-22T10:39:52;12.70;99.90
7588;DHT22;3835;48.850;8.938;2023-02-22T10:42:22;12.70;99.90
7588;DHT22;3835;48.850;8.938;2023-02-22T10:44:50;12.60;99.90
7588;DHT22;3835;48.850;8.938;2023-02-22T10:47:18;12.40;99.90
7588;DHT22;3835;48.850;8.938;2023-02-22T10:49:49;12.20;99.90
7588;DHT22;3835;48.850;8.938;2023-02-22T10:52:22;12.20;99.90
7588;DHT22;3835;48.850;8.938;2023-02-22T10:54:51;12.40;99.90
7588;DHT22;3835;48.850;8.938;2023-02-22T10:57:21;12.50;99.90
7588;DHT22;3835;48.850;8.938;2023-02-22T10:59:50;12.50;99.90
7588;DHT22;3835;48.850;8.938;2023-02-22T11:02:20;12.60;99.90
7588;DHT22;3835;48.850;8.938;2023-02-22T11:04:50;12.60;99.90
7588;DHT22;3835;48.850;8.938;2023-02-22T11:07:20;12.60;99.90
7588;DHT22;3835;48.850;8.938;2023-02-22T11:09:50;12.80;99.90
7588;DHT22;3835;48.850;8.938;2023-02-22T11:12:20;12.80;99.90
7588;DHT22;3835;48.850;8.938;2023-02-22T11:14:50;12.90;99.90
7588;DHT22;3835;48.850;8.938;2023-02-22T11:17:25;13.00;99.90
7588;DHT22;3835;48.850;8.938;2023-02-22T11:19:55;13.00;99.90
7588;DHT22;3835;48.850;8.938;2023-02-22T11:22:24;13.30;99.90
7588;DHT22;3835;48.850;8.938;2023-02-22T11:24:56;13.20;99.90
7588;DHT22;3835;48.850;8.938;2023-02-22T11:27:32;13.40;99.90
7588;DHT22;3835;48.850;8.938;2023-02-22T11:30:20;13.50;99.90
7588;DHT22;3835;48.850;8.938;2023-02-22T11:32:52;13.50;99.90
7588;DHT22;3835;48.850;8.938;2023-02-22T11:35:49;13.30;99.90
7588;DHT22;3835;48.850;8.938;2023-02-22T11:38:20;13.10;99.90
7588;DHT22;3835;48.850;8.938;2023-02-22T11:41:10;13.10;99.90
7588;DHT22;3835;48.850;8.938;2023-02-22T11:43:41;13.20;99.90
7588;DHT22;3835;48.850;8.938;2023-02-22T11:46:12;13.10;99.90
7588;DHT22;3835;48.850;8.938;2023-02-22T11:48:46;12.90;99.90
7588;DHT22;3835;48.850;8.938;2023-02-22T11:51:31;12.90;99.90
7588;DHT22;3835;48.850;8.938;2023-02-22T11:54:11;12.60;99.90
7588;DHT22;3835;48.850;8.938;2023-02-22T11:56:49;12.80;99.90
7588;DHT22;3835;48.850;8.938;2023-02-22T11:59:24;12.70;99.90
7588;DHT22;3835;48.850;8.938;2023-02-22T12:01:55;12.90;99.90
7588;DHT22;3835;48.850;8.938;2023-02-22T12:04:42;12.90;99.90
7588;DHT22;3835;48.850;8.938;2023-02-22T12:07:22;12.80;99.90
7588;DHT22;3835;48.850;8.938;2023-02-22T12:09:58;12.90;99.90
7588;DHT22;3835;48.850;8.938;2023-02-22T12:12:31;12.90;99.90
7588;DHT22;3835;48.850;8.938;2023-02-22T12:15:07;13.00;99.90
7588;DHT22;3835;48.850;8.938;2023-02-22T12:17:48;12.90;99.90
7588;DHT22;3835;48.850;8.938;2023-02-22T12:20:19;13.00;99.90
7588;DHT22;3835;48.850;8.938;2023-02-22T12:23:00;13.10;99.90
7588;DHT22;3835;48.850;8.938;2023-02-22T12:25:31;13.20;99.90
7588;DHT22;3835;48.850;8.938;2023-02-22T12:28:02;13.20;99.90
7588;DHT22;3835;48.850;8.938;2023-02-22T12:30:39;13.20;99.90
7588;DHT22;3835;48.850;8.938;2023-02-22T12:33:13;13.10;99.90
7588;DHT22;3835;48.850;8.938;2023-02-22T12:35:43;12.90;99.90
7588;DHT22;3835;48.850;8.938;2023-02-22T12:38:18;12.80;99.90
7588;DHT22;3835;48.850;8.938;2023-02-22T12:40:52;13.10;99.90
7588;DHT22;3835;48.850;8.938;2023-02-22T12:43:24;13.30;99.90
7588;DHT22;3835;48.850;8.938;2023-02-22T12:45:59;13.40;99.90
7588;DHT22;3835;48.850;8.938;2023-02-22T12:48:39;13.40;99.90
7588;DHT22;3835;48.850;8.938;2023-02-22T12:51:22;13.40;99.90
7588;DHT22;3835;48.850;8.938;2023-02-22T12:53:57;13.50;99.90
7588;DHT22;3835;48.850;8.938;2023-02-22T12:56:30;13.20;99.90
7588;DHT22;3835;48.850;8.938;2023-02-22T12:59:01;12.70;99.90
7588;DHT22;3835;48.850;8.938;2023-02-22T13:01:35;12.80;99.90
7588;DHT22;3835;48.850;8.938;2023-02-22T13:04:03;12.70;99.90
7588;DHT22;3835;48.850;8.938;2023-02-22T13:06:39;12.80;99.90
7588;DHT22;3835;48.850;8.938;2023-02-22T13:12:16;12.70;99.90
7588;DHT22;3835;48.850;8.938;2023-02-22T13:14:54;12.70;99.90
7588;DHT22;3835;48.850;8.938;2023-02-22T13:17:29;13.00;99.90
7588;DHT22;3835;48.850;8.938;2023-02-22T13:20:01;13.00;99.90
7588;DHT22;3835;48.850;8.938;2023-02-22T13:22:35;13.10;99.90
7588;DHT22;3835;48.850;8.938;2023-02-22T13:25:09;13.30;99.90
7588;DHT22;3835;48.850;8.938;2023-02-22T13:27:43;13.50;99.90
7588;DHT22;3835;48.850;8.938;2023-02-22T13:30:19;13.60;99.90
7588;DHT22;3835;48.850;8.938;2023-02-22T13:33:02;13.70;99.90
7588;DHT22;3835;48.850;8.938;2023-02-22T13:35:45;13.70;99.90
7588;DHT22;3835;48.850;8.938;2023-02-22T13:38:27;13.80;99.90
7588;DHT22;3835;48.850;8.938;2023-02-22T13:41:20;13.80;99.90
7588;DHT22;3835;48.850;8.938;2023-02-22T13:44:15;13.70;99.90
7588;DHT22;3835;48.850;8.938;2023-02-22T13:47:20;13.70;99.90
7588;DHT22;3835;48.850;8.938;2023-02-22T13:52:50;13.50;99.90
7588;DHT22;3835;48.850;8.938;2023-02-22T13:55:22;13.60;99.90
7588;DHT22;3835;48.850;8.938;2023-02-22T13:57:59;13.50;99.90
7588;DHT22;3835;48.850;8.938;2023-02-22T14:03:30;13.50;99.90
7588;DHT22;3835;48.850;8.938;2023-02-22T14:06:01;13.50;99.90
7588;DHT22;3835;48.850;8.938;2023-02-22T14:08:44;13.50;99.90
7588;DHT22;3835;48.850;8.938;2023-02-22T14:14:21;13.70;99.90
7588;DHT22;3835;48.850;8.938;2023-02-22T14:17:23;13.70;99.90
7588;DHT22;3835;48.850;8.938;2023-02-22T14:20:19;13.80;99.90
7588;DHT22;3835;48.850;8.938;2023-02-22T14:22:47;13.80;99.90
7588;DHT22;3835;48.850;8.938;2023-02-22T14:25:33;13.70;99.90
7588;DHT22;3835;48.850;8.938;2023-02-22T14:28:02;13.70;99.90
7588;DHT22;3835;48.850;8.938;2023-02-22T14:30:31;13.60;99.90
7588;DHT22;3835;48.850;8.938;2023-02-22T14:33:00;13.70;99.90
7588;DHT22;3835;48.850;8.938;2023-02-22T14:35:31;13.70;99.90
7588;DHT22;3835;48.850;8.938;2023-02-22T14:38:02;13.70;99.90
7588;DHT22;3835;48.850;8.938;2023-02-22T14:40:32;13.60;99.90
7588;DHT22;3835;48.850;8.938;2023-02-22T14:43:02;13.50;99.90
7588;DHT22;3835;48.850;8.938;2023-02-22T14:45:32;13.50;99.90
7588;DHT22;3835;48.850;8.938;2023-02-22T14:48:04;13.50;99.90
7588;DHT22;3835;48.850;8.938;2023-02-22T14:50:42;13.30;99.90
7588;DHT22;3835;48.850;8.938;2023-02-22T14:53:20;13.30;99.90
7588;DHT22;3835;48.850;8.938;2023-02-22T14:55:52;13.30;99.90
7588;DHT22;3835;48.850;8.938;2023-02-22T14:58:23;13.30;99.90
7588;DHT22;3835;48.850;8.938;2023-02-22T15:00:52;13.20;99.90
7588;DHT22;3835;48.850;8.938;2023-02-22T15:03:28;13.20;99.90
7588;DHT22;3835;48.850;8.938;2023-02-22T15:06:04;13.00;99.90
7588;DHT22;3835;48.850;8.938;2023-02-22T15:08:31;13.20;99.90
7588;DHT22;3835;48.850;8.938;2023-02-22T15:10:59;13.20;99.90
7588;DHT22;3835;48.850;8.938;2023-02-22T15:13:28;13.20;99.90
7588;DHT22;3835;48.850;8.938;2023-02-22T15:15:58;13.10;99.90
7588;DHT22;3835;48.850;8.938;2023-02-22T15:18:29;13.10;99.90
7588;DHT22;3835;48.850;8.938;2023-02-22T15:21:03;13.00;99.90
7588;DHT22;3835;48.850;8.938;2023-02-22T15:23:39;13.00;99.90
7588;DHT22;3835;48.850;8.938;2023-02-22T15:26:07;12.80;99.90
7588;DHT22;3835;48.850;8.938;2023-02-22T15:28:41;12.70;99.90
7588;DHT22;3835;48.850;8.938;2023-02-22T15:31:16;12.50;99.90
7588;DHT22;3835;48.850;8.938;2023-02-22T15:33:44;12.60;99.90
7588;DHT22;3835;48.850;8.938;2023-02-22T15:36:15;12.50;99.90
7588;DHT22;3835;48.850;8.938;2023-02-22T15:38:47;12.50;99.90
7588;DHT22;3835;48.850;8.938;2023-02-22T15:41:28;12.50;99.90
7588;DHT22;3835;48.850;8.938;2023-02-22T15:44:00;12.30;99.90
7588;DHT22;3835;48.850;8.938;2023-02-22T15:46:29;12.20;99.90
7588;DHT22;3835;48.850;8.938;2023-02-22T15:49:17;12.10;99.90
7588;DHT22;3835;48.850;8.938;2023-02-22T15:51:45;12.00;99.90
7588;DHT22;3835;48.850;8.938;2023-02-22T15:54:16;12.00;99.90
7588;DHT22;3835;48.850;8.938;2023-02-22T15:56:48;11.90;99.90
7588;DHT22;3835;48.850;8.938;2023-02-22T15:59:17;11.80;99.90
7588;DHT22;3835;48.850;8.938;2023-02-22T16:01:46;11.80;99.90
7588;DHT22;3835;48.850;8.938;2023-02-22T16:04:20;11.80;99.90
7588;DHT22;3835;48.850;8.938;2023-02-22T16:06:49;11.80;99.90
7588;DHT22;3835;48.850;8.938;2023-02-22T16:09:20;11.80;99.90
7588;DHT22;3835;48.850;8.938;2023-02-22T16:11:49;11.70;99.90
7588;DHT22;3835;48.850;8.938;2023-02-22T16:14:26;11.70;99.90
7588;DHT22;3835;48.850;8.938;2023-02-22T16:17:22;11.60;99.90
7588;DHT22;3835;48.850;8.938;2023-02-22T16:19:57;11.50;99.90
7588;DHT22;3835;48.850;8.938;2023-02-22T16:22:29;11.40;99.90
7588;DHT22;3835;48.850;8.938;2023-02-22T16:25:21;11.20;99.90
7588;DHT22;3835;48.850;8.938;2023-02-22T16:27:51;11.10;99.90
7588;DHT22;3835;48.850;8.938;2023-02-22T16:30:23;11.00;99.90
7588;DHT22;3835;48.850;8.938;2023-02-22T16:32:51;11.00;99.90
7588;DHT22;3835;48.850;8.938;2023-02-22T16:35:20;10.90;99.90
7588;DHT22;3835;48.850;8.938;2023-02-22T16:37:55;10.80;99.90
7588;DHT22;3835;48.850;8.938;2023-02-22T16:40:24;10.70;99.90
7588;DHT22;3835;48.850;8.938;2023-02-22T16:42:51;10.60;99.90
7588;DHT22;3835;48.850;8.938;2023-02-22T16:45:19;10.60;99.90
7588;DHT22;3835;48.850;8.938;2023-02-22T16:47:47;10.50;99.90
7588;DHT22;3835;48.850;8.938;2023-02-22T16:50:16;10.40;99.90